createdAt,value
2023-05-05T00:00:16.616Z,7.21
2023-05-05T00:01:10.077Z,7.20
2023-05-05T00:01:43.613Z,7.20
2023-05-05T00:02:18.104Z,7.21
2023-05-05T00:02:51.709Z,7.22
2023-05-05T00:03:26.632Z,7.22
2023-05-05T00:04:00.368Z,7.22
2023-05-05T00:04:33.956Z,7.22
2023-05-05T00:05:08.447Z,7.21
2023-05-05T00:05:42.643Z,7.23
2023-05-05T00:06:16.493Z,7.22
2023-05-05T00:06:51.091Z,7.23
2023-05-05T00:07:24.864Z,7.20
2023-05-05T00:07:59.432Z,7.15
2023-05-05T00:08:33.469Z,7.08
2023-05-05T00:09:07.541Z,7.00
2023-05-05T00:09:41.876Z,6.95
2023-05-05T00:10:15.948Z,6.92
2023-05-05T00:10:50.949Z,6.89
2023-05-05T00:11:28.418Z,6.87
2023-05-05T00:12:51.093Z,6.82
2023-05-05T00:14:36.036Z,6.69
2023-05-05T00:16:12.157Z,6.61
2023-05-05T00:17:48.579Z,6.53
2023-05-05T00:19:16.264Z,6.47
2023-05-05T00:21:04.635Z,6.42
2023-05-05T00:21:37.965Z,6.41
2023-05-05T00:22:11.956Z,6.42
2023-05-05T00:22:45.110Z,6.42
2023-05-05T00:23:20.007Z,6.43
2023-05-05T00:23:53.588Z,6.44
2023-05-05T00:24:26.864Z,6.45
2023-05-05T00:25:00.161Z,6.46
2023-05-05T00:25:33.741Z,6.47
2023-05-05T00:26:07.043Z,6.47
2023-05-05T00:26:40.185Z,6.48
2023-05-05T00:27:13.450Z,6.41
2023-05-05T00:27:46.941Z,6.49
2023-05-05T00:28:20.212Z,6.48
2023-05-05T00:28:53.560Z,6.48
2023-05-05T00:29:26.896Z,6.47
2023-05-05T00:30:01.711Z,6.46
2023-05-05T00:30:35.242Z,6.36
2023-05-05T00:31:08.804Z,6.47
2023-05-05T00:31:42.420Z,6.46
2023-05-05T00:32:15.842Z,6.43
2023-05-05T00:32:51.314Z,6.45
2023-05-05T00:33:24.699Z,6.45
2023-05-05T00:33:57.922Z,6.45
2023-05-05T00:34:31.177Z,6.44
2023-05-05T00:35:06.900Z,6.45
2023-05-05T00:35:40.624Z,6.45
2023-05-05T00:36:15.026Z,6.45
2023-05-05T00:36:48.693Z,6.45
2023-05-05T00:37:22.013Z,6.35
2023-05-05T00:37:55.564Z,6.45
2023-05-05T00:38:29.038Z,6.43
2023-05-05T00:39:02.434Z,6.46
2023-05-05T00:39:35.811Z,6.43
2023-05-05T00:40:10.714Z,6.47
2023-05-05T00:40:44.012Z,6.47
2023-05-05T00:41:17.628Z,6.48
2023-05-05T00:41:50.899Z,6.49
2023-05-05T00:42:24.755Z,6.46
2023-05-05T00:42:59.713Z,6.48
2023-05-05T00:43:33.074Z,6.48
2023-05-05T00:44:06.515Z,6.48
2023-05-05T00:44:41.718Z,6.49
2023-05-05T00:45:15.962Z,6.50
2023-05-05T00:46:02.565Z,6.49
2023-05-05T00:46:36.112Z,6.45
2023-05-05T00:47:09.822Z,6.46
2023-05-05T00:47:52.506Z,6.46
2023-05-05T00:48:26.888Z,6.44
2023-05-05T00:49:01.526Z,6.44
2023-05-05T00:49:36.009Z,6.45
2023-05-05T00:50:10.123Z,6.44
2023-05-05T00:50:45.014Z,6.42
2023-05-05T00:51:19.095Z,6.40
2023-05-05T00:51:52.600Z,6.38
2023-05-05T00:52:26.604Z,6.35
2023-05-05T00:53:04.776Z,6.32
2023-05-05T00:53:41.464Z,6.29
2023-05-05T00:54:14.924Z,6.26
2023-05-05T00:54:48.505Z,6.24
2023-05-05T00:55:22.325Z,6.22
2023-05-05T00:55:55.653Z,6.21
2023-05-05T00:56:28.970Z,6.19
2023-05-05T00:57:05.567Z,6.17
2023-05-05T00:57:38.948Z,6.17
2023-05-05T00:58:13.497Z,6.16
2023-05-05T00:58:47.089Z,6.13
2023-05-05T00:59:21.273Z,6.11
2023-05-05T00:59:56.070Z,6.11
2023-05-05T01:00:30.280Z,6.10
2023-05-05T01:01:04.009Z,6.08
2023-05-05T01:01:37.633Z,6.05
2023-05-05T01:02:10.946Z,6.05
2023-05-05T01:02:45.000Z,6.02
2023-05-05T01:03:19.211Z,6.03
2023-05-05T01:03:53.597Z,6.02
2023-05-05T01:04:28.114Z,6.01
2023-05-05T01:05:03.817Z,6.00
2023-05-05T01:05:56.035Z,5.97
2023-05-05T01:06:49.143Z,5.94
2023-05-05T01:07:22.560Z,5.89
2023-05-05T01:08:21.133Z,5.89
2023-05-05T01:09:12.348Z,5.86
2023-05-05T01:10:20.756Z,5.82
2023-05-05T01:11:03.413Z,5.80
2023-05-05T01:11:52.035Z,5.80
2023-05-05T01:12:37.695Z,5.80
2023-05-05T01:13:29.064Z,5.78
2023-05-05T01:14:19.144Z,5.76
2023-05-05T01:15:12.683Z,5.75
2023-05-05T01:16:10.868Z,5.73
2023-05-05T01:16:59.535Z,5.70
2023-05-05T01:17:42.661Z,5.66
2023-05-05T01:18:24.750Z,5.67
2023-05-05T01:19:07.072Z,5.68
2023-05-05T01:19:58.182Z,5.68
2023-05-05T01:20:41.491Z,5.69
2023-05-05T01:21:29.222Z,5.69
2023-05-05T01:22:07.300Z,5.69
2023-05-05T01:22:45.851Z,5.69
2023-05-05T01:23:36.853Z,5.70
2023-05-05T01:24:47.751Z,5.69
2023-05-05T01:25:56.842Z,5.68
2023-05-05T01:26:43.408Z,5.66
2023-05-05T01:27:59.528Z,5.66
2023-05-05T01:28:50.088Z,5.63
2023-05-05T01:29:48.451Z,5.64
2023-05-05T01:30:55.378Z,5.62
2023-05-05T01:31:44.864Z,5.62
2023-05-05T01:32:25.216Z,5.63
2023-05-05T01:33:04.302Z,5.63
2023-05-05T01:33:46.473Z,5.64
2023-05-05T01:34:43.172Z,5.66
2023-05-05T01:35:27.407Z,5.65
2023-05-05T01:36:06.151Z,5.66
2023-05-05T01:36:44.427Z,5.67
2023-05-05T01:37:24.792Z,5.68
2023-05-05T01:38:09.878Z,5.69
2023-05-05T01:38:46.107Z,5.69
2023-05-05T01:39:22.205Z,5.69
2023-05-05T01:39:59.505Z,5.70
2023-05-05T01:40:38.496Z,5.71
2023-05-05T01:41:16.199Z,5.70
2023-05-05T01:41:53.915Z,5.71
2023-05-05T01:42:29.609Z,5.71
2023-05-05T01:43:06.568Z,5.71
2023-05-05T01:43:41.636Z,5.71
2023-05-05T01:44:16.947Z,5.69
2023-05-05T01:44:53.430Z,5.72
2023-05-05T01:45:32.353Z,5.71
2023-05-05T01:46:07.981Z,5.70
2023-05-05T01:46:41.496Z,5.67
2023-05-05T01:47:20.192Z,5.70
2023-05-05T01:47:56.213Z,5.70
2023-05-05T01:48:33.729Z,5.68
2023-05-05T01:50:46.958Z,5.66
2023-05-05T01:51:24.734Z,5.62
2023-05-05T01:51:59.155Z,5.63
2023-05-05T01:52:34.399Z,5.63
2023-05-05T01:53:09.811Z,5.63
2023-05-05T01:53:43.979Z,5.62
2023-05-05T01:54:18.887Z,5.62
2023-05-05T01:54:53.528Z,5.61
2023-05-05T01:55:29.968Z,5.61
2023-05-05T01:56:04.083Z,5.61
2023-05-05T01:56:40.516Z,5.60
2023-05-05T01:57:15.346Z,5.59
2023-05-05T01:57:50.523Z,5.59
2023-05-05T01:58:26.361Z,5.59
2023-05-05T01:59:02.099Z,5.58
2023-05-05T01:59:38.262Z,5.57
2023-05-05T02:00:12.320Z,5.58
2023-05-05T02:00:49.883Z,5.57
2023-05-05T02:01:26.178Z,5.57
2023-05-05T02:02:02.994Z,5.56
2023-05-05T02:02:39.161Z,5.55
2023-05-05T02:03:14.987Z,5.55
2023-05-05T02:03:51.479Z,5.54
2023-05-05T02:04:28.370Z,5.54
2023-05-05T02:05:05.392Z,5.52
2023-05-05T02:05:40.288Z,5.53
2023-05-05T02:06:16.734Z,5.50
2023-05-05T02:06:53.318Z,5.50
2023-05-05T02:07:28.330Z,5.49
2023-05-05T02:08:04.359Z,5.50
2023-05-05T02:08:39.727Z,5.50
2023-05-05T02:09:14.659Z,5.51
2023-05-05T02:09:49.013Z,5.51
2023-05-05T02:10:22.423Z,5.51
2023-05-05T02:10:56.501Z,5.51
2023-05-05T02:11:30.192Z,5.50
2023-05-05T02:12:04.925Z,5.49
2023-05-05T02:12:41.396Z,5.49
2023-05-05T02:13:18.422Z,5.47
2023-05-05T02:13:53.445Z,5.47
2023-05-05T02:14:29.747Z,5.46
2023-05-05T02:15:04.098Z,5.45
2023-05-05T02:15:38.405Z,5.44
2023-05-05T02:16:13.512Z,5.39
2023-05-05T02:16:47.525Z,5.42
2023-05-05T02:17:23.265Z,5.41
2023-05-05T02:17:58.363Z,5.39
2023-05-05T02:18:35.917Z,5.38
2023-05-05T02:19:09.604Z,5.37
2023-05-05T02:19:46.050Z,5.37
2023-05-05T02:20:20.646Z,5.35
2023-05-05T02:20:54.627Z,5.33
2023-05-05T02:21:28.812Z,5.31
2023-05-05T02:22:02.802Z,5.30
2023-05-05T02:22:36.412Z,5.27
2023-05-05T02:23:10.048Z,5.23
2023-05-05T02:23:48.430Z,5.21
2023-05-05T02:24:22.036Z,5.20
2023-05-05T02:24:55.707Z,5.19
2023-05-05T02:25:38.652Z,5.17
2023-05-05T02:26:14.224Z,5.14
2023-05-05T02:26:50.508Z,5.15
2023-05-05T02:27:25.414Z,5.14
2023-05-05T02:28:01.037Z,5.12
2023-05-05T02:28:56.217Z,5.12
2023-05-05T02:29:34.858Z,5.10
2023-05-05T02:30:11.500Z,5.09
2023-05-05T02:30:50.477Z,5.08
2023-05-05T02:31:27.585Z,5.08
2023-05-05T02:32:07.068Z,5.06
2023-05-05T02:32:45.415Z,5.06
2023-05-05T02:33:21.645Z,5.05
2023-05-05T02:33:58.139Z,5.04
2023-05-05T02:34:36.903Z,5.03
2023-05-05T02:35:22.898Z,4.99
2023-05-05T02:35:57.701Z,4.95
2023-05-05T02:36:36.947Z,4.93
2023-05-05T02:37:13.036Z,4.91
2023-05-05T02:38:02.713Z,4.90
2023-05-05T02:38:43.309Z,4.88
2023-05-05T02:39:25.249Z,4.87
2023-05-05T02:40:02.880Z,4.86
2023-05-05T02:40:40.872Z,4.86
2023-05-05T02:41:19.191Z,4.86
2023-05-05T02:41:55.570Z,4.86
2023-05-05T02:42:38.843Z,4.86
2023-05-05T02:43:19.990Z,4.86
2023-05-05T02:43:55.696Z,4.86
2023-05-05T02:44:32.114Z,4.87
2023-05-05T02:45:11.533Z,4.88
2023-05-05T02:45:46.486Z,4.89
2023-05-05T02:46:20.145Z,4.90
2023-05-05T02:46:54.963Z,4.91
2023-05-05T02:47:37.810Z,4.92
2023-05-05T02:48:13.295Z,4.92
2023-05-05T02:48:46.854Z,4.91
2023-05-05T02:49:20.272Z,4.91
2023-05-05T02:49:54.615Z,4.91
2023-05-05T02:50:27.872Z,4.92
2023-05-05T02:51:07.997Z,4.92
2023-05-05T02:51:43.026Z,4.92
2023-05-05T02:52:23.057Z,4.90
2023-05-05T02:52:56.663Z,4.90
2023-05-05T02:53:30.438Z,4.90
2023-05-05T02:54:04.720Z,4.91
2023-05-05T02:54:38.113Z,4.90
2023-05-05T02:55:16.136Z,4.92
2023-05-05T02:55:53.986Z,4.92
2023-05-05T02:56:48.281Z,4.91
2023-05-05T02:57:31.776Z,4.91
2023-05-05T02:58:08.986Z,4.90
2023-05-05T02:59:15.335Z,4.89
2023-05-05T03:00:08.586Z,4.86
2023-05-05T03:00:45.898Z,4.83
2023-05-05T03:01:51.586Z,4.82
2023-05-05T03:02:35.730Z,4.81
2023-05-05T03:03:22.450Z,4.80
2023-05-05T03:04:17.845Z,4.80
2023-05-05T03:05:04.637Z,4.79
2023-05-05T03:05:46.015Z,4.79
2023-05-05T03:06:25.232Z,4.79
2023-05-05T03:07:04.336Z,4.79
2023-05-05T03:07:53.800Z,4.78
2023-05-05T03:08:35.279Z,4.78
2023-05-05T03:09:33.346Z,4.77
2023-05-05T03:10:14.050Z,4.77
2023-05-05T03:11:05.324Z,4.76
2023-05-05T03:11:46.693Z,4.76
2023-05-05T03:12:26.413Z,4.76
2023-05-05T03:13:10.610Z,4.76
2023-05-05T03:13:56.506Z,4.76
2023-05-05T03:14:41.262Z,4.76
2023-05-05T03:15:15.525Z,4.77
2023-05-05T03:15:52.751Z,4.78
2023-05-05T03:16:29.963Z,4.79
2023-05-05T03:17:04.381Z,4.77
2023-05-05T03:17:39.886Z,4.79
2023-05-05T03:18:15.879Z,4.79
2023-05-05T03:18:52.757Z,4.79
2023-05-05T03:19:28.048Z,4.78
2023-05-05T03:20:06.074Z,4.80
2023-05-05T03:20:41.102Z,4.80
2023-05-05T03:21:15.991Z,4.79
2023-05-05T03:21:49.588Z,4.79
2023-05-05T03:22:23.266Z,4.81
2023-05-05T03:22:57.500Z,4.82
2023-05-05T03:23:33.037Z,4.82
2023-05-05T03:24:17.193Z,4.84
2023-05-05T03:24:53.412Z,4.82
2023-05-05T03:25:45.871Z,4.82
2023-05-05T03:26:25.076Z,4.78
2023-05-05T03:26:58.416Z,4.78
2023-05-05T03:27:35.034Z,4.76
2023-05-05T03:28:08.468Z,4.76
2023-05-05T03:28:42.012Z,4.76
2023-05-05T03:29:23.368Z,4.74
2023-05-05T03:29:56.997Z,4.74
2023-05-05T03:30:30.895Z,4.74
2023-05-05T03:31:04.604Z,4.72
2023-05-05T03:31:38.221Z,4.75
2023-05-05T03:32:14.383Z,4.73
2023-05-05T03:32:47.783Z,4.73
2023-05-05T03:33:21.194Z,4.72
2023-05-05T03:33:54.482Z,4.72
2023-05-05T03:34:29.024Z,4.72
2023-05-05T03:35:03.468Z,4.72
2023-05-05T03:35:38.454Z,4.73
2023-05-05T03:36:13.165Z,4.72
2023-05-05T03:36:46.530Z,4.71
2023-05-05T03:37:20.952Z,4.71
2023-05-05T03:37:57.090Z,4.71
2023-05-05T03:38:30.366Z,4.71
2023-05-05T03:39:04.165Z,4.71
2023-05-05T03:39:38.705Z,4.71
2023-05-05T03:40:13.242Z,4.69
2023-05-05T03:40:47.534Z,4.70
2023-05-05T03:41:23.909Z,4.71
2023-05-05T03:41:57.638Z,4.71
2023-05-05T03:42:31.589Z,4.71
2023-05-05T03:43:05.033Z,4.73
2023-05-05T03:43:39.564Z,4.73
2023-05-05T03:44:13.024Z,4.74
2023-05-05T03:44:46.265Z,4.74
2023-05-05T03:45:19.846Z,4.74
2023-05-05T03:45:53.823Z,4.75
2023-05-05T03:46:27.051Z,4.76
2023-05-05T03:47:00.514Z,4.76
2023-05-05T03:47:34.345Z,4.77
2023-05-05T03:48:09.897Z,4.79
2023-05-05T03:48:43.976Z,4.79
2023-05-05T03:49:17.985Z,4.79
2023-05-05T03:49:52.682Z,4.79
2023-05-05T03:50:26.156Z,4.80
2023-05-05T03:50:59.942Z,4.77
2023-05-05T03:51:33.614Z,4.76
2023-05-05T03:52:06.801Z,4.75
2023-05-05T03:52:40.231Z,4.74
2023-05-05T03:53:13.464Z,4.74
2023-05-05T03:53:47.728Z,4.73
2023-05-05T03:54:21.474Z,4.73
2023-05-05T03:54:54.877Z,4.73
2023-05-05T03:55:28.152Z,4.73
2023-05-05T03:56:01.588Z,4.71
2023-05-05T03:56:35.045Z,4.73
2023-05-05T03:57:08.266Z,4.73
2023-05-05T03:57:41.523Z,4.64
2023-05-05T03:58:14.686Z,4.72
2023-05-05T03:58:48.667Z,4.73
2023-05-05T03:59:22.062Z,4.74
2023-05-05T03:59:55.979Z,4.74
2023-05-05T04:00:29.326Z,4.74
2023-05-05T04:01:02.575Z,4.74
2023-05-05T04:01:36.104Z,4.75
2023-05-05T04:02:09.459Z,4.75
2023-05-05T04:02:43.853Z,4.75
2023-05-05T04:03:18.246Z,4.74
2023-05-05T04:03:54.194Z,4.76
2023-05-05T04:04:27.784Z,4.75
2023-05-05T04:05:01.439Z,4.76
2023-05-05T04:05:35.277Z,4.77
2023-05-05T04:06:09.152Z,4.77
2023-05-05T04:06:42.403Z,4.79
2023-05-05T04:07:15.889Z,4.80
2023-05-05T04:07:50.180Z,4.80
2023-05-05T04:08:23.406Z,4.81
2023-05-05T04:08:56.919Z,4.82
2023-05-05T04:09:31.827Z,4.83
2023-05-05T04:10:06.051Z,4.82
2023-05-05T04:10:39.757Z,4.82
2023-05-05T04:11:13.337Z,4.84
2023-05-05T04:11:46.685Z,4.84
2023-05-05T04:12:20.179Z,4.83
2023-05-05T04:12:53.394Z,4.81
2023-05-05T04:13:26.643Z,4.79
2023-05-05T04:14:01.019Z,4.77
2023-05-05T04:14:34.773Z,4.75
2023-05-05T04:15:10.325Z,4.76
2023-05-05T04:15:46.717Z,4.75
2023-05-05T04:16:20.854Z,4.75
2023-05-05T04:16:54.239Z,4.74
2023-05-05T04:17:27.481Z,4.68
2023-05-05T04:18:01.038Z,4.77
2023-05-05T04:18:34.715Z,4.77
2023-05-05T04:19:08.475Z,4.78
2023-05-05T04:19:41.999Z,4.81
2023-05-05T04:20:15.412Z,4.81
2023-05-05T04:20:48.768Z,4.82
2023-05-05T04:21:22.816Z,4.84
2023-05-05T04:21:56.288Z,4.84
2023-05-05T04:22:29.611Z,4.85
2023-05-05T04:23:03.002Z,4.85
2023-05-05T04:23:36.459Z,4.88
2023-05-05T04:24:10.010Z,4.88
2023-05-05T04:24:43.460Z,4.91
2023-05-05T04:25:16.788Z,4.93
2023-05-05T04:25:50.370Z,4.93
2023-05-05T04:26:23.693Z,4.95
2023-05-05T04:26:58.037Z,4.95
2023-05-05T04:27:31.585Z,4.97
2023-05-05T04:28:05.534Z,4.99
2023-05-05T04:28:39.031Z,4.99
2023-05-05T04:29:12.421Z,5.01
2023-05-05T04:29:46.014Z,5.02
2023-05-05T04:30:19.521Z,4.96
2023-05-05T04:30:52.889Z,5.04
2023-05-05T04:31:26.420Z,5.06
2023-05-05T04:31:59.837Z,5.06
2023-05-05T04:32:33.566Z,5.06
2023-05-05T04:33:06.882Z,5.06
2023-05-05T04:33:40.513Z,5.07
2023-05-05T04:34:13.874Z,5.09
2023-05-05T04:34:47.272Z,5.09
2023-05-05T04:35:20.618Z,5.10
2023-05-05T04:35:54.156Z,5.12
2023-05-05T04:36:27.664Z,5.13
2023-05-05T04:37:01.212Z,5.14
2023-05-05T04:37:35.189Z,5.14
2023-05-05T04:38:08.448Z,5.16
2023-05-05T04:38:41.804Z,5.17
2023-05-05T04:39:15.191Z,5.17
2023-05-05T04:39:48.587Z,5.18
2023-05-05T04:40:22.009Z,5.18
2023-05-05T04:40:55.482Z,5.21
2023-05-05T04:41:30.108Z,5.23
2023-05-05T04:42:04.143Z,5.24
2023-05-05T04:42:37.862Z,5.25
2023-05-05T04:43:11.169Z,5.27
2023-05-05T04:43:44.868Z,5.28
2023-05-05T04:44:18.498Z,5.30
2023-05-05T04:44:51.953Z,5.31
2023-05-05T04:45:25.330Z,5.32
2023-05-05T04:45:58.846Z,5.34
2023-05-05T04:46:35.100Z,5.34
2023-05-05T04:47:08.481Z,5.36
2023-05-05T04:47:42.313Z,5.36
2023-05-05T04:48:15.786Z,5.40
2023-05-05T04:48:49.107Z,5.41
2023-05-05T04:49:22.231Z,5.44
2023-05-05T04:49:56.253Z,5.45
2023-05-05T04:50:29.743Z,5.44
2023-05-05T04:51:07.120Z,5.49
2023-05-05T04:51:43.563Z,5.50
2023-05-05T04:52:16.967Z,5.51
2023-05-05T04:52:52.503Z,5.52
2023-05-05T04:53:26.144Z,5.54
2023-05-05T04:53:59.399Z,5.58
2023-05-05T04:54:35.814Z,5.60
2023-05-05T04:55:10.787Z,5.63
2023-05-05T04:55:44.121Z,5.63
2023-05-05T04:56:17.358Z,5.67
2023-05-05T04:56:51.136Z,5.69
2023-05-05T04:57:24.513Z,5.72
2023-05-05T04:57:58.771Z,5.73
2023-05-05T04:58:32.279Z,5.76
2023-05-05T04:59:05.606Z,5.79
2023-05-05T04:59:39.165Z,5.82
2023-05-05T05:00:13.227Z,5.85
2023-05-05T05:00:46.528Z,5.87
2023-05-05T05:01:19.830Z,5.90
2023-05-05T05:01:53.104Z,5.92
2023-05-05T05:02:27.260Z,5.95
2023-05-05T05:03:00.684Z,5.98
2023-05-05T05:03:37.996Z,6.01
2023-05-05T05:04:11.381Z,6.03
2023-05-05T05:04:44.596Z,6.05
2023-05-05T05:05:20.282Z,6.08
2023-05-05T05:05:53.512Z,6.10
2023-05-05T05:06:27.415Z,6.14
2023-05-05T05:07:01.735Z,6.16
2023-05-05T05:07:35.184Z,6.17
2023-05-05T05:08:08.641Z,6.21
2023-05-05T05:08:41.876Z,6.23
2023-05-05T05:09:15.299Z,6.25
2023-05-05T05:09:48.580Z,6.28
2023-05-05T05:10:23.462Z,6.32
2023-05-05T05:10:56.792Z,6.31
2023-05-05T05:11:30.175Z,6.32
2023-05-05T05:12:04.051Z,6.33
2023-05-05T05:12:37.724Z,6.33
2023-05-05T05:13:12.969Z,6.32
2023-05-05T05:13:46.498Z,6.34
2023-05-05T05:14:19.770Z,6.36
2023-05-05T05:14:53.273Z,6.38
2023-05-05T05:15:26.925Z,6.40
2023-05-05T05:16:01.419Z,6.45
2023-05-05T05:16:34.957Z,6.47
2023-05-05T05:17:08.232Z,6.49
2023-05-05T05:17:41.675Z,6.52
2023-05-05T05:18:15.188Z,6.55
2023-05-05T05:18:48.527Z,6.58
2023-05-05T05:19:22.179Z,6.61
2023-05-05T05:19:56.498Z,6.64
2023-05-05T05:20:33.640Z,6.67
2023-05-05T05:21:07.717Z,6.70
2023-05-05T05:21:41.207Z,6.73
2023-05-05T05:22:17.848Z,6.76
2023-05-05T05:22:54.882Z,6.79
2023-05-05T05:23:28.348Z,6.82
2023-05-05T05:24:01.826Z,6.85
2023-05-05T05:24:36.238Z,6.88
2023-05-05T05:25:09.668Z,6.91
2023-05-05T05:25:43.574Z,6.95
2023-05-05T05:26:17.822Z,6.98
2023-05-05T05:26:52.002Z,7.02
2023-05-05T05:27:25.469Z,7.05
2023-05-05T05:28:09.354Z,7.10
2023-05-05T05:28:46.012Z,7.12
2023-05-05T05:29:20.621Z,7.16
2023-05-05T05:29:54.002Z,7.19
2023-05-05T05:30:27.514Z,7.22
2023-05-05T05:31:30.657Z,7.25
2023-05-05T05:32:27.897Z,7.28
2023-05-05T05:33:10.230Z,7.32
2023-05-05T05:33:44.037Z,7.35
2023-05-05T05:34:17.636Z,7.39
2023-05-05T05:34:51.214Z,7.43
2023-05-05T05:35:24.473Z,7.46
2023-05-05T05:35:57.842Z,7.52
2023-05-05T05:36:32.053Z,7.56
2023-05-05T05:37:05.469Z,7.60
2023-05-05T05:37:38.952Z,7.64
2023-05-05T05:38:13.000Z,7.68
2023-05-05T05:38:46.409Z,7.72
2023-05-05T05:39:19.802Z,7.77
2023-05-05T05:39:53.764Z,7.80
2023-05-05T05:40:27.386Z,7.86
2023-05-05T05:41:06.496Z,7.90
2023-05-05T05:41:39.912Z,7.95
2023-05-05T05:42:13.540Z,7.99
2023-05-05T05:42:46.876Z,8.03
2023-05-05T05:43:20.549Z,8.08
2023-05-05T05:43:53.922Z,8.12
2023-05-05T05:44:27.204Z,8.16
2023-05-05T05:45:00.664Z,8.19
2023-05-05T05:45:34.187Z,8.23
2023-05-05T05:46:09.163Z,8.27
2023-05-05T05:46:43.500Z,8.31
2023-05-05T05:47:19.632Z,8.35
2023-05-05T05:47:55.928Z,8.41
2023-05-05T05:48:29.706Z,8.43
2023-05-05T05:49:03.210Z,8.48
2023-05-05T05:49:37.232Z,8.52
2023-05-05T05:50:11.321Z,8.57
2023-05-05T05:50:44.717Z,8.60
2023-05-05T05:51:18.157Z,8.64
2023-05-05T05:51:51.702Z,8.70
2023-05-05T05:52:25.156Z,8.74
2023-05-05T05:52:58.569Z,8.79
2023-05-05T05:53:32.118Z,8.83
2023-05-05T05:54:05.571Z,8.88
2023-05-05T05:54:38.866Z,8.91
2023-05-05T05:55:12.352Z,8.94
2023-05-05T05:55:47.188Z,8.99
2023-05-05T05:56:20.568Z,9.05
2023-05-05T05:56:53.890Z,9.09
2023-05-05T05:57:28.149Z,9.14
2023-05-05T05:58:03.346Z,9.18
2023-05-05T05:58:37.381Z,9.22
2023-05-05T05:59:10.918Z,9.26
2023-05-05T05:59:44.990Z,9.30
2023-05-05T06:00:18.640Z,9.35
2023-05-05T06:00:53.079Z,9.40
2023-05-05T06:01:27.601Z,9.46
2023-05-05T06:02:01.708Z,9.50
2023-05-05T06:02:35.595Z,9.54
2023-05-05T06:03:09.048Z,9.57
2023-05-05T06:03:43.941Z,9.61
2023-05-05T06:04:17.396Z,9.64
2023-05-05T06:04:50.902Z,9.65
2023-05-05T06:05:24.199Z,9.69
2023-05-05T06:05:59.195Z,9.72
2023-05-05T06:06:32.545Z,9.75
2023-05-05T06:07:06.887Z,9.79
2023-05-05T06:07:42.646Z,9.80
2023-05-05T06:08:16.215Z,9.83
2023-05-05T06:08:52.198Z,9.86
2023-05-05T06:09:25.495Z,9.90
2023-05-05T06:10:01.385Z,9.93
2023-05-05T06:10:42.180Z,9.97
2023-05-05T06:11:18.596Z,10.00
2023-05-05T06:11:52.398Z,10.04
2023-05-05T06:12:25.720Z,10.06
2023-05-05T06:12:59.048Z,10.10
2023-05-05T06:13:32.519Z,10.14
2023-05-05T06:14:05.844Z,10.16
2023-05-05T06:14:39.789Z,10.18
2023-05-05T06:15:13.288Z,10.21
2023-05-05T06:15:46.655Z,10.24
2023-05-05T06:16:20.092Z,10.27
2023-05-05T06:16:53.897Z,10.30
2023-05-05T06:17:28.253Z,10.33
2023-05-05T06:18:02.829Z,10.36
2023-05-05T06:18:36.414Z,10.39
2023-05-05T06:19:10.885Z,10.42
2023-05-05T06:19:44.328Z,10.43
2023-05-05T06:20:17.685Z,10.47
2023-05-05T06:20:51.653Z,10.49
2023-05-05T06:21:25.740Z,10.49
2023-05-05T06:21:59.094Z,10.53
2023-05-05T06:22:32.928Z,10.55
2023-05-05T06:23:06.972Z,10.57
2023-05-05T06:23:42.521Z,10.60
2023-05-05T06:24:17.039Z,10.63
2023-05-05T06:24:50.479Z,10.65
2023-05-05T06:25:23.995Z,10.67
2023-05-05T06:25:57.622Z,10.69
2023-05-05T06:26:31.695Z,10.72
2023-05-05T06:27:05.784Z,10.79
2023-05-05T06:27:38.949Z,10.85
2023-05-05T06:28:12.239Z,10.90
2023-05-05T06:28:45.734Z,10.99
2023-05-05T06:29:18.958Z,11.07
2023-05-05T06:29:52.196Z,11.17
2023-05-05T06:30:26.382Z,11.26
2023-05-05T06:30:59.566Z,11.37
2023-05-05T06:31:33.008Z,11.46
2023-05-05T06:32:08.445Z,11.58
2023-05-05T06:32:41.694Z,11.70
2023-05-05T06:33:15.096Z,11.80
2023-05-05T06:33:48.285Z,11.92
2023-05-05T06:34:21.558Z,12.05
2023-05-05T06:34:54.804Z,12.18
2023-05-05T06:35:28.066Z,12.25
2023-05-05T06:36:01.486Z,12.47
2023-05-05T06:36:34.833Z,12.60
2023-05-05T06:37:08.106Z,12.79
2023-05-05T06:37:41.431Z,12.96
2023-05-05T06:38:14.865Z,13.11
2023-05-05T06:38:48.093Z,13.26
2023-05-05T06:39:21.503Z,13.41
2023-05-05T06:39:54.707Z,13.56
2023-05-05T06:40:27.909Z,13.71
2023-05-05T06:41:01.665Z,13.84
2023-05-05T06:41:35.338Z,13.98
2023-05-05T06:42:08.768Z,14.13
2023-05-05T06:42:42.159Z,14.27
2023-05-05T06:43:17.440Z,14.42
2023-05-05T06:43:54.450Z,14.56
2023-05-05T06:44:28.520Z,14.71
2023-05-05T06:45:01.731Z,14.86
2023-05-05T06:45:35.216Z,15.01
2023-05-05T06:46:08.634Z,15.15
2023-05-05T06:46:43.974Z,15.28
2023-05-05T06:47:17.416Z,15.43
2023-05-05T06:47:50.905Z,15.58
2023-05-05T06:48:24.259Z,15.72
2023-05-05T06:48:57.592Z,15.87
2023-05-05T06:49:31.503Z,16.00
2023-05-05T06:50:05.829Z,16.15
2023-05-05T06:50:39.216Z,16.29
2023-05-05T06:51:12.710Z,16.42
2023-05-05T06:51:45.969Z,16.54
2023-05-05T06:52:19.333Z,16.68
2023-05-05T06:52:53.393Z,16.82
2023-05-05T06:53:26.686Z,16.97
2023-05-05T06:53:59.959Z,17.12
2023-05-05T06:54:33.260Z,17.30
2023-05-05T06:55:07.314Z,17.46
2023-05-05T06:55:44.798Z,17.60
2023-05-05T06:56:18.311Z,17.69
2023-05-05T06:56:51.687Z,17.77
2023-05-05T06:57:24.980Z,17.85
2023-05-05T06:57:58.327Z,17.92
2023-05-05T06:58:31.986Z,18.02
2023-05-05T06:59:05.251Z,18.13
2023-05-05T06:59:38.424Z,18.26
2023-05-05T07:00:12.401Z,18.36
2023-05-05T07:00:45.700Z,18.48
2023-05-05T07:01:19.358Z,18.57
2023-05-05T07:01:52.718Z,18.66
2023-05-05T07:02:26.977Z,18.72
2023-05-05T07:03:00.545Z,18.77
2023-05-05T07:03:34.128Z,18.76
2023-05-05T07:04:07.527Z,18.84
2023-05-05T07:04:41.777Z,18.90
2023-05-05T07:05:15.212Z,18.98
2023-05-05T07:05:48.565Z,19.06
2023-05-05T07:06:21.968Z,19.14
2023-05-05T07:06:55.487Z,19.25
2023-05-05T07:07:28.800Z,19.34
2023-05-05T07:08:02.137Z,19.45
2023-05-05T07:08:35.702Z,19.54
2023-05-05T07:09:08.922Z,19.68
2023-05-05T07:09:42.327Z,19.84
2023-05-05T07:10:15.514Z,19.91
2023-05-05T07:10:48.992Z,19.93
2023-05-05T07:11:22.270Z,20.01
2023-05-05T07:11:55.632Z,20.08
2023-05-05T07:12:33.672Z,20.12
2023-05-05T07:13:08.450Z,20.15
2023-05-05T07:13:42.026Z,20.23
2023-05-05T07:14:15.400Z,20.33
2023-05-05T07:14:48.780Z,20.38
2023-05-05T07:15:27.701Z,20.38
2023-05-05T07:16:02.899Z,20.35
2023-05-05T07:16:37.428Z,20.34
2023-05-05T07:17:11.789Z,20.35
2023-05-05T07:17:45.164Z,20.36
2023-05-05T07:18:20.677Z,20.40
2023-05-05T07:19:07.846Z,20.42
2023-05-05T07:19:41.008Z,20.51
2023-05-05T07:20:14.283Z,20.53
2023-05-05T07:20:47.610Z,20.59
2023-05-05T07:21:21.119Z,20.58
2023-05-05T07:21:54.436Z,20.61
2023-05-05T07:22:27.669Z,20.67
2023-05-05T07:23:00.966Z,20.76
2023-05-05T07:23:34.669Z,20.71
2023-05-05T07:24:07.972Z,20.82
2023-05-05T07:24:41.202Z,20.87
2023-05-05T07:25:14.341Z,20.93
2023-05-05T07:25:47.559Z,21.03
2023-05-05T07:26:21.153Z,21.09
2023-05-05T07:26:54.460Z,21.17
2023-05-05T07:27:27.912Z,21.28
2023-05-05T07:28:01.519Z,21.37
2023-05-05T07:28:35.288Z,21.43
2023-05-05T07:29:08.612Z,21.52
2023-05-05T07:29:41.739Z,21.58
2023-05-05T07:30:17.583Z,21.67
2023-05-05T07:30:52.355Z,21.70
2023-05-05T07:31:26.844Z,21.72
2023-05-05T07:32:00.272Z,21.78
2023-05-05T07:32:33.710Z,21.78
2023-05-05T07:33:07.121Z,21.78
2023-05-05T07:33:40.480Z,21.78
2023-05-05T07:34:15.977Z,21.89
2023-05-05T07:34:49.166Z,21.79
2023-05-05T07:35:23.321Z,21.78
2023-05-05T07:35:56.487Z,21.80
2023-05-05T07:36:29.821Z,21.82
2023-05-05T07:37:04.335Z,21.82
2023-05-05T07:37:37.507Z,21.90
2023-05-05T07:38:11.121Z,21.97
2023-05-05T07:38:44.543Z,22.00
2023-05-05T07:39:19.578Z,22.04
2023-05-05T07:39:52.788Z,22.09
2023-05-05T07:40:26.125Z,22.14
2023-05-05T07:40:59.592Z,22.22
2023-05-05T07:41:33.372Z,22.27
2023-05-05T07:42:07.514Z,22.28
2023-05-05T07:42:40.929Z,22.32
2023-05-05T07:43:14.176Z,22.22
2023-05-05T07:43:47.539Z,22.34
2023-05-05T07:44:20.874Z,22.32
2023-05-05T07:44:54.145Z,22.31
2023-05-05T07:45:29.056Z,22.38
2023-05-05T07:46:02.407Z,22.37
2023-05-05T07:46:35.930Z,22.41
2023-05-05T07:47:09.303Z,22.44
2023-05-05T07:47:42.645Z,22.53
2023-05-05T07:48:15.988Z,22.52
2023-05-05T07:48:49.271Z,22.45
2023-05-05T07:49:23.052Z,22.39
2023-05-05T07:49:56.448Z,22.35
2023-05-05T07:50:30.236Z,22.34
2023-05-05T07:51:03.614Z,22.40
2023-05-05T07:51:37.133Z,22.49
2023-05-05T07:52:10.506Z,22.50
2023-05-05T07:52:49.876Z,22.58
2023-05-05T07:53:31.470Z,22.71
2023-05-05T07:54:05.416Z,22.82
2023-05-05T07:54:38.684Z,22.87
2023-05-05T07:55:12.241Z,22.85
2023-05-05T07:55:45.532Z,22.88
2023-05-05T07:56:19.339Z,22.98
2023-05-05T07:56:54.480Z,23.02
2023-05-05T07:57:31.178Z,23.11
2023-05-05T07:58:04.594Z,23.28
2023-05-05T07:58:37.863Z,23.38
2023-05-05T07:59:11.842Z,23.44
2023-05-05T07:59:45.474Z,23.50
2023-05-05T08:00:19.777Z,23.54